Adel, Iowa
Current Conditions -  °F | °C
As of 1:15 PM on Sunday 21 Dec 2014 (Local Time) from KPRO Reporting Station
Haze Haze  
Wind Chill: 32°   Ceiling: 700
Heat Index: 40°   Visibility: 5mi
Dew Point: 38°   Wind: 15mph
Humidity: 92%   Direction: 180°S
Pressure: 29.82"   Gusts: NA
Location:  41.61°N, 94.02°W
Report Text: KPRO 211915Z AUTO 18013KT 5SM BR OVC007 05/03 A2982 RMK AO2 T00450033
Loading
Personal Weather Stations






























Interactive Weather Map New forecast layout! Learn more

10-Day Weather Forecast

Advertisements
Track Severe Weather on mobile